Flight Track Log - Related Links

Times and Time Zones

All times are in EDT time to prevent confusion due to time zone crossing. See the AAL1975 flight status page for this flight to view local times or setup timezone preferences in your user account.

Time Position Orientation Groundspeed Altitude Reporting Facility
EDT Latitude Longitude Course Direction KTS MPH feet Rate Location/Type
Wed 01:44:49 PM 41.9410 -87.9410 264° West 188 216 2,600  Level FlightAware ADS-B
Wed 01:45:38 PM 41.9380 -87.9870 265° West 225 259 3,600 2,096 Climbing FlightAware ADS-B
Wed 01:46:12 PM 41.9350 -88.0570 267° West 258 297 5,500 3,700 Climbing FlightAware ADS-B
Wed 01:46:38 PM 41.9340 -88.0980 268° West 242 278 7,300 3,736 Climbing FlightAware ADS-B
Wed 01:47:05 PM 41.9320 -88.1370 266° West 240 276 8,800 2,857 Climbing FlightAware ADS-B
Wed 01:47:41 PM 41.9300 -88.1950 267° West 259 298 10,300 2,519 Climbing FlightAware ADS-B
Wed 01:48:26 PM 41.9250 -88.2700 265° West 273 314 12,200 2,357 Climbing FlightAware ADS-B
Wed 01:49:05 PM 41.9200 -88.3380 264° West 293 337 13,600 2,122 Climbing FlightAware ADS-B
Wed 01:49:48 PM 41.9130 -88.4210 264° West 314 361 15,100 1,976 Climbing FlightAware ADS-B
Wed 01:50:30 PM 41.8990 -88.5020 257° West 341 392 16,400 1,756 Climbing FlightAware ADS-B
Wed 01:51:10 PM 41.8770 -88.5840 250° West 363 418 17,500 1,929 Climbing FlightAware ADS-B
Wed 01:51:54 PM 41.8530 -88.6750 251° West 373 429 19,100 2,000 Climbing FlightAware ADS-B
Wed 01:52:34 PM 41.8280 -88.7690 250° West 388 447 20,300 1,800 Climbing FlightAware ADS-B
Wed 01:53:14 PM 41.8050 -88.8590 251° West 397 457 21,500 1,778 Climbing FlightAware ADS-B
Wed 01:53:55 PM 41.7810 -88.9500 251° West 403 464 22,700 1,852 Climbing FlightAware ADS-B
Wed 01:54:35 PM 41.7540 -89.0510 250° West 409 471 24,000 1,875 Climbing FlightAware ADS-B
Wed 01:55:15 PM 41.7280 -89.1480 250° West 414 476 25,200 1,683 Climbing FlightAware ADS-B
Wed 01:55:57 PM 41.7020 -89.2480 251° West 419 482 26,300 1,568 Climbing FlightAware ADS-B
Wed 01:56:43 PM 41.6710 -89.3620 250° West 419 482 27,500 1,588 Climbing FlightAware ADS-B
Wed 01:57:39 PM 41.6350 -89.4980 251° West 417 480 29,000 1,723 Climbing FlightAware ADS-B
Wed 01:58:17 PM 41.6100 -89.5890 250° West 408 470 30,200 1,725 Climbing FlightAware ADS-B
Wed 01:58:59 PM 41.5830 -89.6890 250° West 403 464 31,300 1,395 Climbing FlightAware ADS-B
Wed 01:59:43 PM 41.5560 -89.7900 250° West 402 463 32,200 1,158 Climbing FlightAware ADS-B
Wed 01:59:56 PM 41.5490 -89.8150 249° West 402 463 32,400 767 Climbing FlightAware ADS-B
Wed 02:01:09 PM 41.5100 -89.9590 250° West 409 471 33,300 974 Climbing FlightAware ADS-B
Wed 02:01:53 PM 41.4720 -90.0970 250° West 405 466 34,300 1,432 Climbing FlightAware ADS-B
Wed 02:02:37 PM 41.4440 -90.1980 250° West 392 451 35,400 1,259 Climbing FlightAware ADS-B
Wed 02:03:14 PM 41.4220 -90.2780 250° West 388 447 36,000 468 Climbing FlightAware ADS-B
Wed 02:03:54 PM 41.3960 -90.3700 249° West 390 449 36,000  Level FlightAware ADS-B
Wed 02:04:38 PM 41.3680 -90.4690 249° West 392 451 36,000  Level FlightAware ADS-B
Wed 02:05:13 PM 41.3460 -90.5470 249° West 394 453 36,000  Level FlightAware ADS-B
Wed 02:06:04 PM 41.3140 -90.6570 249° West 398 458 36,000  Level FlightAware ADS-B
Wed 02:06:48 PM 41.2760 -90.7590 244° Southwest 401 461 36,000  Level FlightAware ADS-B
Wed 02:07:27 PM 41.2440 -90.8450 244° Southwest 405 466 36,000  Level FlightAware ADS-B
Wed 02:08:14 PM 41.2040 -90.9520 244° Southwest 408 470 36,000  Level FlightAware ADS-B
Wed 02:08:54 PM 41.1750 -91.0290 243° Southwest 410 472 36,000  Level FlightAware ADS-B
Wed 02:09:37 PM 41.1350 -91.1360 244° Southwest 412 474 36,000  Level FlightAware ADS-B
Wed 02:10:13 PM 41.1040 -91.2190 244° Southwest 411 473 36,000  Level FlightAware ADS-B
Wed 02:10:53 PM 41.0690 -91.3110 243° Southwest 409 471 36,000  Level FlightAware ADS-B
Wed 02:12:02 PM 41.0120 -91.4600 243° Southwest 406 467 36,000  Level FlightAware ADS-B
Wed 02:12:39 PM 40.9820 -91.5380 243° Southwest 406 467 36,000  Level FlightAware ADS-B
Wed 02:13:36 PM 40.9350 -91.6600 243° Southwest 406 467 36,000  Level FlightAware ADS-B
Wed 02:14:19 PM 40.8940 -91.7680 243° Southwest 406 467 36,000  Level FlightAware ADS-B
Wed 02:15:45 PM 40.8220 -91.9540 243° Southwest 405 466 36,000  Level FlightAware ADS-B
Wed 02:16:22 PM 40.7940 -92.0230 242° Southwest 405 466 36,000  Level FlightAware ADS-B
Wed 02:17:13 PM 40.7460 -92.1470 243° Southwest 408 470 36,000  Level FlightAware ADS-B
Wed 02:17:46 PM 40.7200 -92.2150 243° Southwest 408 470 36,000  Level FlightAware ADS-B
Wed 02:18:33 PM 40.6760 -92.3270 243° Southwest 411 473 36,000  Level FlightAware ADS-B
Wed 02:19:11 PM 40.6440 -92.4070 242° Southwest 411 473 36,000  Level FlightAware ADS-B
Wed 02:20:13 PM 40.5880 -92.5500 243° Southwest 413 475 36,000  Level FlightAware ADS-B
Wed 02:20:53 PM 40.5540 -92.6380 243° Southwest 413 475 36,000  Level FlightAware ADS-B
Wed 02:21:37 PM 40.5150 -92.7350 242° Southwest 415 478 36,000  Level FlightAware ADS-B
Wed 02:22:13 PM 40.4830 -92.8150 242° Southwest 416 479 36,000  Level FlightAware ADS-B
Wed 02:22:53 PM 40.4460 -92.9060 242° Southwest 416 479 36,000  Level FlightAware ADS-B
Wed 02:23:08 PM 40.4327 -92.9398 243° Southwest 416 479 36,000  Level FlightAware ADS-B
Wed 02:23:39 PM 40.4053 -93.0079 242° Southwest 416 479 36,000  Level FlightAware ADS-B
Wed 02:24:09 PM 40.3783 -93.0753 242° Southwest 415 478 36,000  Level FlightAware ADS-B
Wed 02:24:39 PM 40.3512 -93.1424 242° Southwest 416 479 36,000  Level FlightAware ADS-B
Wed 02:25:09 PM 40.3242 -93.2094 242° Southwest 417 480 36,000  Level FlightAware ADS-B
Wed 02:25:40 PM 40.2970 -93.2763 242° Southwest 419 482 36,000  Level FlightAware ADS-B
Wed 02:26:17 PM 40.2626 -93.3610 242° Southwest 421 484 36,000  Level FlightAware ADS-B
Wed 02:26:48 PM 40.2348 -93.4294 242° Southwest 423 487 36,000  Level FlightAware ADS-B
Wed 02:27:18 PM 40.2072 -93.4969 242° Southwest 422 486 36,000  Level FlightAware ADS-B
Wed 02:27:49 PM 40.1779 -93.5685 242° Southwest 421 484 36,000  Level FlightAware ADS-B
Wed 02:28:22 PM 40.1483 -93.6410 242° Southwest 423 487 36,000  Level FlightAware ADS-B
Wed 02:28:52 PM 40.1204 -93.7087 242° Southwest 422 486 36,000  Level FlightAware ADS-B
Wed 02:29:22 PM 40.0922 -93.7770 242° Southwest 423 487 36,000  Level FlightAware ADS-B
Wed 02:29:53 PM 40.0635 -93.8467 242° Southwest 424 488 36,000  Level FlightAware ADS-B
Wed 02:30:23 PM 40.0356 -93.9142 242° Southwest 425 489 36,000  Level FlightAware ADS-B
Wed 02:30:52 PM 40.0091 -93.9786 242° Southwest 425 489 36,000  Level FlightAware ADS-B
Wed 02:31:06 PM 39.9983 -94.0106 246° West 424 488 36,000  Level FlightAware ADS-B
Wed 02:31:36 PM 39.9801 -94.0834 252° West 423 487 36,000  Level FlightAware ADS-B
Wed 02:32:06 PM 39.9623 -94.1567 252° West 423 487 36,000  Level FlightAware ADS-B
Wed 02:32:36 PM 39.9457 -94.2305 254° West 424 488 36,000  Level FlightAware ADS-B
Wed 02:33:07 PM 39.9294 -94.3061 254° West 425 489 36,000  Level FlightAware ADS-B
Wed 02:33:37 PM 39.9130 -94.3804 254° West 425 489 36,000  Level FlightAware ADS-B
Wed 02:34:12 PM 39.8939 -94.4653 254° West 425 489 36,000  Level FlightAware ADS-B
Wed 02:34:42 PM 39.8769 -94.5399 253° West 427 491 36,000  Level FlightAware ADS-B
Wed 02:35:12 PM 39.8602 -94.6135 254° West 426 490 36,000  Level FlightAware ADS-B
Wed 02:35:43 PM 39.8431 -94.6891 254° West 427 491 36,000  Level FlightAware ADS-B
Wed 02:36:17 PM 39.8240 -94.7736 254° West 426 490 36,000  Level FlightAware ADS-B
Wed 02:36:48 PM 39.8072 -94.8475 254° West 425 489 36,000  Level FlightAware ADS-B
Wed 02:37:20 PM 39.7894 -94.9257 254° West 425 489 36,000  Level FlightAware ADS-B
Wed 02:37:50 PM 39.7722 -95.0009 253° West 426 490 36,000  Level FlightAware ADS-B
Wed 02:38:22 PM 39.7542 -95.0787 253° West 427 491 36,000  Level FlightAware ADS-B
Wed 02:38:55 PM 39.7357 -95.1586 253° West 428 493 36,000  Level FlightAware ADS-B
Wed 02:39:27 PM 39.7172 -95.2377 253° West 430 495 36,000  Level FlightAware ADS-B
Wed 02:40:11 PM 39.6919 -95.3462 253° West 433 498 36,000  Level FlightAware ADS-B
Wed 02:40:43 PM 39.6732 -95.4263 253° West 435 501 36,000  Level FlightAware ADS-B
Wed 02:41:13 PM 39.6554 -95.5019 253° West 435 501 36,000  Level FlightAware ADS-B
Wed 02:41:43 PM 39.6376 -95.5768 253° West 434 499 36,000  Level FlightAware ADS-B
Wed 02:42:14 PM 39.6197 -95.6526 253° West 432 497 36,000  Level FlightAware ADS-B
Wed 02:42:45 PM 39.6018 -95.7289 253° West 430 495 36,000  Level FlightAware ADS-B
Wed 02:43:16 PM 39.5841 -95.8039 253° West 430 495 36,000  Level FlightAware ADS-B
Wed 02:43:46 PM 39.5664 -95.8781 253° West 430 495 36,000  Level FlightAware ADS-B
Wed 02:44:16 PM 39.5484 -95.9533 253° West 431 496 36,000  Level FlightAware ADS-B
Wed 02:44:47 PM 39.5303 -96.0284 253° West 431 496 36,000  Level FlightAware ADS-B
Wed 02:45:19 PM 39.5114 -96.1069 253° West 432 497 36,000  Level FlightAware ADS-B
Wed 02:45:50 PM 39.4933 -96.1826 253° West 432 497 36,000  Level FlightAware ADS-B
Wed 02:46:21 PM 39.4753 -96.2573 253° West 429 494 36,000  Level FlightAware ADS-B
Wed 02:46:51 PM 39.4568 -96.3324 252° West 426 490 36,000  Level FlightAware ADS-B
Wed 02:47:21 PM 39.4389 -96.4052 252° West 425 489 36,000  Level FlightAware ADS-B
Wed 02:47:51 PM 39.4209 -96.4788 252° West 423 487 36,000  Level FlightAware ADS-B
Wed 02:48:22 PM 39.4030 -96.5520 252° West 424 488 36,000  Level FlightAware ADS-B
Wed 02:48:55 PM 39.3833 -96.6320 252° West 423 487 36,000  Level FlightAware ADS-B
Wed 02:49:26 PM 39.3653 -96.7048 252° West 422 486 36,000  Level FlightAware ADS-B
Wed 02:49:56 PM 39.3475 -96.7766 252° West 421 484 36,000  Level FlightAware ADS-B
Wed 02:50:27 PM 39.3292 -96.8503 252° West 420 483 36,000  Level FlightAware ADS-B
Wed 02:50:57 PM 39.3116 -96.9211 252° West 420 483 36,000  Level FlightAware ADS-B
Wed 02:51:28 PM 39.2928 -96.9963 252° West 420 483 36,000  Level FlightAware ADS-B
Wed 02:51:58 PM 39.2748 -97.0679 252° West 419 482 36,000  Level FlightAware ADS-B
Wed 02:52:29 PM 39.2569 -97.1390 252° West 418 481 36,000  Level FlightAware ADS-B
Wed 02:53:01 PM 39.2374 -97.2164 252° West 419 482 36,000  Level FlightAware ADS-B
Wed 02:53:52 PM 39.2070 -97.3360 252° West 419 482 36,000  Level FlightAware ADS-B
Wed 02:54:04 PM 39.1994 -97.3661 252° West 420 483 36,000  Level FlightAware ADS-B
Wed 02:54:35 PM 39.1807 -97.4398 252° West 423 487 36,000  Level FlightAware ADS-B
Wed 02:55:05 PM 39.1621 -97.5124 252° West 428 493 36,000  Level FlightAware ADS-B
Wed 02:55:36 PM 39.1430 -97.5871 252° West 429 494 36,000  Level FlightAware ADS-B
Wed 02:56:06 PM 39.1240 -97.6608 252° West 431 496 36,000  Level FlightAware ADS-B
Wed 02:56:38 PM 39.1042 -97.7379 252° West 432 497 36,000  Level FlightAware ADS-B
Wed 02:57:08 PM 39.0852 -97.8113 252° West 432 497 36,000  Level FlightAware ADS-B
Wed 02:57:39 PM 39.0663 -97.8843 252° West 433 498 36,000  Level FlightAware ADS-B
Wed 02:58:31 PM 39.0334 -98.0108 252° West 434 499 36,000  Level FlightAware ADS-B
Wed 02:59:21 PM 39.0004 -98.1369 251° West 436 502 36,000  Level FlightAware ADS-B
Wed 02:59:54 PM 38.9796 -98.2161 251° West 437 503 36,000  Level FlightAware ADS-B
Wed 03:00:30 PM 38.9563 -98.3047 251° West 435 501 36,000  Level FlightAware ADS-B
Wed 03:01:01 PM 38.9365 -98.3794 251° West 435 501 36,000  Level FlightAware ADS-B
Wed 03:01:58 PM 38.9000 -98.5170 251° West 431 496 36,000  Level FlightAware ADS-B
Wed 03:02:34 PM 38.8770 -98.6030 251° West 432 497 36,000  Level FlightAware ADS-B
Wed 03:03:36 PM 38.8360 -98.7560 251° West 432 497 36,000  Level FlightAware ADS-B
Wed 03:04:21 PM 38.8100 -98.8470 250° West 432 497 36,000  Level FlightAware ADS-B
Wed 03:08:30 PM 38.6430 -99.4640 251° West 433 498 36,000  Level FlightAware ADS-B
Wed 03:09:23 PM 38.6120 -99.5720 250° West 433 498 36,000  Level FlightAware ADS-B
Wed 03:09:59 PM 38.5910 -99.6460 250° West 433 498 36,000  Level FlightAware ADS-B
Wed 03:10:45 PM 38.5640 -99.7400 250° West 433 498 36,000  Level FlightAware ADS-B
Wed 03:11:50 PM 38.5270 -99.8730 250° West 433 498 36,000  Level FlightAware ADS-B
Wed 03:12:26 PM 38.5060 -99.9470 250° West 433 498 36,000  Level FlightAware ADS-B
Wed 03:13:03 PM 38.4840 -100.0220 249° West 433 498 36,000  Level FlightAware ADS-B
Wed 03:13:49 PM 38.4570 -100.1160 250° West 433 498 36,000  Level FlightAware ADS-B
Wed 03:14:26 PM 38.4360 -100.1920 251° West 433 498 36,000  Level FlightAware ADS-B
Wed 03:15:58 PM 38.3820 -100.3800 250° West 433 498 36,000  Level FlightAware ADS-B
Wed 03:16:34 PM 38.3610 -100.4530 253° West 433 498 36,000  Level FlightAware ADS-B
Wed 03:17:34 PM 38.3260 -100.5760 250° West 433 498 36,000  Level FlightAware ADS-B
Wed 03:18:10 PM 38.3050 -100.6490 250° West 433 498 36,000  Level FlightAware ADS-B
Wed 03:23:35 PM 38.3312 -101.6710 272° West 425 489 36,000  Level FlightAware ADS-B
Wed 03:24:06 PM 38.3375 -101.7460 276° West 425 489 36,000  Level FlightAware ADS-B
Wed 03:24:36 PM 38.3442 -101.8200 277° West 424 488 36,000  Level FlightAware ADS-B
Wed 03:25:06 PM 38.3509 -101.8950 277° West 425 489 36,000  Level FlightAware ADS-B
Wed 03:25:13 PM 38.3520 -101.9120 275° West 426 490 36,000  Level FlightAware ADS-B
Wed 03:25:16 PM 38.3521 -101.9210 271° West 426 490 36,000  Level FlightAware ADS-B
Wed 03:25:24 PM 38.3513 -101.9410 267° West 427 491 36,000  Level FlightAware ADS-B
Wed 03:25:31 PM 38.3495 -101.9580 262° West 429 494 36,000  Level FlightAware ADS-B
Wed 03:25:38 PM 38.3465 -101.9750 257° West 431 496 36,000  Level FlightAware ADS-B
Wed 03:25:48 PM 38.3399 -102.0000 251° West 434 499 36,000  Level FlightAware ADS-B
Wed 03:25:54 PM 38.3350 -102.0130 244° Southwest 436 502 36,000  Level FlightAware ADS-B
Wed 03:26:08 PM 38.3217 -102.0450 242° Southwest 433 498 36,000  Level FlightAware ADS-B
Wed 03:26:26 PM 38.3087 -102.0870 248° West 435 501 36,000  Level FlightAware ADS-B
Wed 03:26:57 PM 38.2847 -102.1590 247° West 434 499 36,000  Level FlightAware ADS-B
Wed 03:27:27 PM 38.2609 -102.2300 247° West 434 499 36,000  Level FlightAware ADS-B
Wed 03:27:58 PM 38.2372 -102.3010 247° West 435 501 36,000  Level FlightAware ADS-B
Wed 03:28:28 PM 38.2129 -102.3740 247° West 435 501 36,000  Level FlightAware ADS-B
Wed 03:28:58 PM 38.1893 -102.4440 247° West 436 502 36,000  Level FlightAware ADS-B
Wed 03:29:32 PM 38.1628 -102.5230 247° West 436 502 36,000  Level FlightAware ADS-B
Wed 03:30:04 PM 38.1371 -102.5990 247° West 435 501 36,000  Level FlightAware ADS-B
Wed 03:30:35 PM 38.1130 -102.6700 247° West 435 501 36,000  Level FlightAware ADS-B
Wed 03:31:05 PM 38.0890 -102.7400 246° West 435 501 36,000  Level FlightAware ADS-B
Wed 03:31:35 PM 38.0651 -102.8110 247° West 434 499 36,000  Level FlightAware ADS-B
Wed 03:32:05 PM 38.0409 -102.8820 247° West 435 501 36,000  Level FlightAware ADS-B
Wed 03:32:34 PM 38.0184 -102.9480 247° West 435 501 36,000  Level FlightAware ADS-B
Wed 03:32:43 PM 38.0122 -102.9700 250° West 432 497 36,000  Level FlightAware ADS-B
Wed 03:32:49 PM 38.0088 -102.9860 255° West 431 496 36,000  Level FlightAware ADS-B
Wed 03:33:20 PM 37.9965 -103.0610 258° West 431 496 36,000  Level FlightAware ADS-B
Wed 03:33:51 PM 37.9843 -103.1370 259° West 430 495 36,000  Level FlightAware ADS-B
Wed 03:34:21 PM 37.9725 -103.2120 259° West 430 495 36,000  Level FlightAware ADS-B
Wed 03:34:52 PM 37.9604 -103.2890 259° West 429 494 36,000  Level FlightAware ADS-B
Wed 03:35:22 PM 37.9490 -103.3630 259° West 429 494 36,000  Level FlightAware ADS-B
Wed 03:35:54 PM 37.9370 -103.4400 259° West 428 493 36,000  Level FlightAware ADS-B
Wed 03:36:24 PM 37.9253 -103.5150 259° West 427 491 36,000 -98 Level FlightAware ADS-B
Wed 03:36:55 PM 37.9139 -103.5900 259° West 426 490 35,900 295 Descending FlightAware ADS-B
Wed 03:37:25 PM 37.9028 -103.6640 259° West 425 489 36,300 900 Climbing FlightAware ADS-B
Wed 03:37:55 PM 37.8916 -103.7380 259° West 425 489 36,800 1,048 Climbing FlightAware ADS-B
Wed 03:38:28 PM 37.8796 -103.8180 259° West 421 484 37,400 923 Climbing FlightAware ADS-B
Wed 03:39:00 PM 37.8680 -103.8940 259° West 421 484 37,800 667 Climbing FlightAware ADS-B
Wed 03:39:22 PM 37.8594 -103.9460 258° West 422 486 38,000 200 Climbing FlightAware ADS-B
Wed 03:40:00 PM 37.8416 -104.0390 256° West 423 487 38,000  Level FlightAware ADS-B
Wed 03:40:31 PM 37.8276 -104.1130 257° West 423 487 38,000  Level FlightAware ADS-B
Wed 03:40:51 PM 37.8180 -104.1620 256° West 425 489 38,000  Level FlightAware ADS-B
Wed 03:41:28 PM 37.7955 -104.2470 252° West 427 491 38,000  Level FlightAware ADS-B
Wed 03:42:02 PM 37.7742 -104.3270 251° West 426 490 38,000  Level FlightAware ADS-B
Wed 03:42:39 PM 37.7504 -104.4140 251° West 426 490 38,000  Level FlightAware ADS-B
Wed 03:43:14 PM 37.7265 -104.4950 250° West 425 489 38,000  Level FlightAware ADS-B
Wed 03:43:44 PM 37.7060 -104.5640 249° West 424 488 38,000  Level FlightAware ADS-B
Wed 03:44:14 PM 37.6817 -104.6330 246° West 423 487 38,000  Level FlightAware ADS-B
Wed 03:44:45 PM 37.6558 -104.7000 244° Southwest 423 487 38,000  Level FlightAware ADS-B
Wed 03:45:16 PM 37.6288 -104.7700 244° Southwest 422 486 38,000  Level FlightAware ADS-B
Wed 03:45:46 PM 37.6031 -104.8360 244° Southwest 423 487 38,000  Level FlightAware ADS-B
Wed 03:46:17 PM 37.5767 -104.9050 244° Southwest 426 490 38,000  Level FlightAware ADS-B
Wed 03:47:19 PM 37.5171 -105.0400 241° Southwest 432 497 38,000  Level FlightAware ADS-B
Wed 03:47:50 PM 37.4813 -105.1040 235° Southwest 431 496 38,000  Level FlightAware ADS-B
Wed 03:48:08 PM 37.4610 -105.1400 235° Southwest 432 497 38,000  Level FlightAware ADS-B
Wed 03:48:38 PM 37.4242 -105.2000 232° Southwest 431 496 38,000  Level FlightAware ADS-B
Wed 03:49:10 PM 37.3870 -105.2640 234° Southwest 434 499 38,000  Level FlightAware ADS-B
Wed 03:49:52 PM 37.3355 -105.3490 233° Southwest 436 502 38,000  Level FlightAware ADS-B
Wed 03:50:18 PM 37.3042 -105.4020 233° Southwest 435 501 38,000  Level FlightAware ADS-B
Wed 03:50:56 PM 37.2746 -105.4870 246° West 434 499 38,000  Level FlightAware ADS-B
Wed 03:51:33 PM 37.2520 -105.5760 252° West 430 495 38,000  Level FlightAware ADS-B
Wed 03:52:36 PM 37.2262 -105.7290 258° West 432 497 38,000  Level FlightAware ADS-B
Wed 03:53:12 PM 37.2139 -105.8180 260° West 435 501 38,000  Level FlightAware ADS-B
Wed 03:54:13 PM 37.1919 -105.9710 260° West 435 501 38,000  Level FlightAware ADS-B
Wed 03:54:44 PM 37.1790 -106.0470 258° West 439 505 38,000  Level FlightAware ADS-B
Wed 03:58:26 PM 37.0170 -106.5680 249° West 439 505 38,000  Level FlightAware ADS-B
Wed 03:59:06 PM 36.9830 -106.6490 242° Southwest 440 506 38,000  Level FlightAware ADS-B
Wed 03:59:54 PM 36.9340 -106.7670 243° Southwest 442 509 38,000  Level FlightAware ADS-B
Wed 04:00:57 PM 36.8860 -106.8790 242° Southwest 444 511 38,000  Level FlightAware ADS-B
Wed 04:01:42 PM 36.8320 -107.0080 242° Southwest 444 511 38,000  Level FlightAware ADS-B
Wed 04:02:21 PM 36.7980 -107.0880 242° Southwest 443 510 38,000  Level FlightAware ADS-B
Wed 04:03:02 PM 36.7540 -107.1920 242° Southwest 442 509 38,000  Level FlightAware ADS-B
Wed 04:03:43 PM 36.7150 -107.2830 242° Southwest 444 511 38,000  Level FlightAware ADS-B
Wed 04:04:23 PM 36.6760 -107.3740 242° Southwest 444 511 38,000  Level FlightAware ADS-B
Wed 04:05:08 PM 36.6340 -107.4720 242° Southwest 443 510 38,000  Level FlightAware ADS-B
Wed 04:06:05 PM 36.5790 -107.6010 242° Southwest 441 507 38,000  Level FlightAware ADS-B
Wed 04:06:42 PM 36.5430 -107.6840 242° Southwest 439 505 38,000  Level FlightAware ADS-B
Wed 04:07:32 PM 36.5020 -107.7810 242° Southwest 439 505 38,000  Level FlightAware ADS-B
Wed 04:08:20 PM 36.4630 -107.8720 242° Southwest 439 505 38,000  Level FlightAware ADS-B
Wed 04:08:56 PM 36.4330 -107.9400 241° Southwest 439 505 38,000  Level FlightAware ADS-B
Wed 04:09:30 PM 36.4060 -108.0040 242° Southwest 439 505 38,000  Level FlightAware ADS-B
Wed 04:10:08 PM 36.3750 -108.0760 242° Southwest 439 505 38,000  Level FlightAware ADS-B
Wed 04:10:53 PM 36.3100 -108.2410 244° Southwest 441 507 38,000  Level FlightAware ADS-B
Wed 04:11:50 PM 36.2770 -108.3550 250° West 441 507 38,000  Level FlightAware ADS-B
Wed 04:12:39 PM 36.2480 -108.4540 250° West 441 507 38,000  Level FlightAware ADS-B
Wed 04:13:13 PM 36.2280 -108.5220 250° West 441 507 38,000  Level FlightAware ADS-B
Wed 04:14:02 PM 36.1990 -108.6210 250° West 441 507 38,000  Level FlightAware ADS-B
Wed 04:14:38 PM 36.1770 -108.6940 250° West 441 507 38,000  Level FlightAware ADS-B
Wed 04:14:50 PM 36.1700 -108.7180 250° West 441 507 38,000  Level FlightAware ADS-B
Wed 04:16:11 PM 36.1220 -108.8820 250° West 441 507 38,000  Level FlightAware ADS-B
Wed 04:16:48 PM 36.1000 -108.9560 250° West 441 507 38,000  Level FlightAware ADS-B
Wed 04:17:34 PM 36.0730 -109.0490 250° West 441 507 38,000  Level FlightAware ADS-B
Wed 04:18:11 PM 36.0510 -109.1240 250° West 441 507 38,000  Level FlightAware ADS-B
Wed 04:18:50 PM 35.9790 -109.3950 252° West 452 520 38,000  Level FlightAware ADS-B
Wed 04:19:32 PM 35.9380 -109.4920 242° Southwest 450 518 38,000  Level FlightAware ADS-B
Wed 04:20:12 PM 35.8960 -109.5790 239° Southwest 448 516 38,000  Level FlightAware ADS-B
Wed 04:20:48 PM 35.8570 -109.6580 239° Southwest 447 514 38,000  Level FlightAware ADS-B
Wed 04:21:32 PM 35.8100 -109.7550 239° Southwest 445 512 38,000  Level FlightAware ADS-B
Wed 04:22:10 PM 35.7700 -109.8360 239° Southwest 444 511 38,000  Level FlightAware ADS-B
Wed 04:22:56 PM 35.7220 -109.9350 239° Southwest 443 510 38,000  Level FlightAware ADS-B
Wed 04:23:37 PM 35.6790 -110.0220 239° Southwest 442 509 38,000  Level FlightAware ADS-B
Wed 04:24:18 PM 35.6350 -110.1100 238° Southwest 443 510 38,000  Level FlightAware ADS-B
Wed 04:24:55 PM 35.5950 -110.1900 238° Southwest 443 510 38,000  Level FlightAware ADS-B
Wed 04:25:43 PM 35.5530 -110.3010 245° Southwest 445 512 38,000  Level FlightAware ADS-B
Wed 04:26:23 PM 35.5230 -110.3970 249° West 446 513 38,000  Level FlightAware ADS-B
Wed 04:27:09 PM 35.4900 -110.5040 249° West 447 514 38,000  Level FlightAware ADS-B
Wed 04:27:48 PM 35.4620 -110.5950 249° West 448 516 38,000  Level FlightAware ADS-B
Wed 04:28:33 PM 35.4280 -110.7030 249° West 450 518 38,000  Level FlightAware ADS-B
Wed 04:29:11 PM 35.4000 -110.7930 249° West 451 519 38,000  Level FlightAware ADS-B
Wed 04:29:55 PM 35.3670 -110.8980 249° West 451 519 38,000  Level FlightAware ADS-B
Wed 04:30:44 PM 35.3360 -110.9990 249° West 451 519 38,000  Level FlightAware ADS-B
Wed 04:32:17 PM 35.2720 -111.2000 249° West 452 520 38,000  Level FlightAware ADS-B
Wed 04:32:55 PM 35.2450 -111.2840 249° West 452 520 38,000  Level FlightAware ADS-B
Wed 04:33:45 PM 35.1940 -111.4450 249° West 452 520 38,000  Level FlightAware ADS-B
Wed 04:34:25 PM 35.1630 -111.5410 248° West 451 519 38,000  Level FlightAware ADS-B
Wed 04:35:09 PM 35.1300 -111.6450 249° West 451 519 38,000  Level FlightAware ADS-B
Wed 04:35:50 PM 35.0990 -111.7410 248° West 451 519 38,000  Level FlightAware ADS-B
Wed 04:36:27 PM 35.0700 -111.8300 248° West 451 519 38,000  Level FlightAware ADS-B
Wed 04:37:11 PM 35.0360 -111.9330 248° West 450 518 38,000  Level FlightAware ADS-B
Wed 04:37:51 PM 35.0060 -112.0280 249° West 451 519 38,000  Level FlightAware ADS-B
Wed 04:38:31 PM 34.9750 -112.1210 248° West 451 519 38,000  Level FlightAware ADS-B
Wed 04:39:11 PM 34.9440 -112.2170 249° West 451 519 38,000  Level FlightAware ADS-B
Wed 04:39:55 PM 34.9100 -112.3200 248° West 453 521 38,000  Level FlightAware ADS-B
Wed 04:40:36 PM 34.8780 -112.4170 248° West 454 522 38,000  Level FlightAware ADS-B
Wed 04:41:17 PM 34.8460 -112.5130 248° West 455 524 38,000  Level FlightAware ADS-B
Wed 04:41:59 PM 34.8130 -112.6130 248° West 456 525 38,000  Level FlightAware ADS-B
Wed 04:42:35 PM 34.7840 -112.7010 248° West 456 525 38,000  Level FlightAware ADS-B
Wed 04:43:18 PM 34.7510 -112.8010 248° West 455 524 38,000  Level FlightAware ADS-B
Wed 04:43:59 PM 34.7170 -112.9000 247° West 455 524 38,000  Level FlightAware ADS-B
Wed 04:44:43 PM 34.6830 -113.0030 248° West 454 522 38,000  Level FlightAware ADS-B
Wed 04:46:53 PM 34.5960 -113.2580 248° West 453 521 38,000 -648 Level FlightAware ADS-B
Wed 04:47:39 PM 34.5450 -113.4090 248° West 452 520 36,100 -1,348 Descending FlightAware ADS-B
Wed 04:48:22 PM 34.5090 -113.5150 248° West 453 521 36,000 -71 Descending FlightAware ADS-B
Wed 04:49:03 PM 34.4750 -113.6130 247° West 454 522 36,000  Level FlightAware ADS-B
Wed 04:49:43 PM 34.4430 -113.7080 248° West 455 524 36,000  Level FlightAware ADS-B
Wed 04:50:27 PM 34.4070 -113.8120 247° West 457 526 36,000  Level FlightAware ADS-B
Wed 04:51:09 PM 34.3730 -113.9090 247° West 457 526 36,000  Level FlightAware ADS-B
Wed 04:51:49 PM 34.3400 -114.0040 247° West 455 524 36,000  Level FlightAware ADS-B
Wed 04:52:33 PM 34.3040 -114.1070 247° West 452 520 36,000  Level FlightAware ADS-B
Wed 04:53:11 PM 34.2740 -114.1950 248° West 451 519 36,000  Level FlightAware ADS-B
Wed 04:53:51 PM 34.2410 -114.2890 247° West 450 518 36,000 -73 Level FlightAware ADS-B
Wed 04:54:33 PM 34.2080 -114.3830 247° West 449 517 35,900 -600 Descending FlightAware ADS-B
Wed 04:55:11 PM 34.1760 -114.4730 247° West 451 519 35,200 -676 Descending FlightAware ADS-B
Wed 04:55:44 PM 34.1510 -114.5410 246° West 452 520 35,100 -75 Descending FlightAware ADS-B
Wed 04:56:31 PM 34.1170 -114.6330 246° West 452 520 35,100  Level FlightAware ADS-B
Wed 04:57:08 PM 34.0910 -114.7050 246° West 452 520 35,100  Level FlightAware ADS-B
Wed 04:57:56 PM 34.0560 -114.8000 246° West 452 520 35,100  Level FlightAware ADS-B
Wed 04:58:32 PM 34.0300 -114.8700 246° West 452 520 35,100  Level FlightAware ADS-B
Wed 04:59:20 PM 33.9950 -114.9640 246° West 452 520 35,100  Level FlightAware ADS-B
Wed 04:59:56 PM 33.9690 -115.0350 246° West 452 520 35,100  Level FlightAware ADS-B
Wed 05:00:54 PM 33.9270 -115.1480 246° West 452 520 35,100  Level FlightAware ADS-B
Wed 05:02:18 PM 33.8660 -115.3120 246° West 452 520 35,100  Level FlightAware ADS-B
Wed 05:02:54 PM 33.8400 -115.3830 246° West 452 520 35,100  Level FlightAware ADS-B
Wed 05:03:52 PM 33.7980 -115.4960 246° West 452 520 35,100  Level FlightAware ADS-B
Wed 05:04:28 PM 33.7720 -115.5660 246° West 452 520 35,100 -3,964 Level FlightAware ADS-B
Wed 05:06:40 PM 33.4740 -115.9850 230° Southwest 419 482 24,000 -4,331 Descending FlightAware ADS-B
Wed 05:07:17 PM 33.4170 -116.0400 219° Southwest 404 465 22,900 -733 Descending FlightAware ADS-B
Wed 05:08:10 PM 33.3520 -116.1040 219° Southwest 404 465 22,900  Level FlightAware ADS-B
Wed 05:08:46 PM 33.3080 -116.1470 219° Southwest 404 465 22,900  Level FlightAware ADS-B
Wed 05:09:33 PM 33.2500 -116.2030 219° Southwest 404 465 22,900  Level FlightAware ADS-B
Wed 05:10:09 PM 33.2050 -116.2460 219° Southwest 404 465 22,900 -4,933 Level FlightAware ADS-B
Wed 05:11:03 PM 33.1240 -116.3280 220° Southwest 358 412 15,500 -6,188 Descending FlightAware ADS-B
Wed 05:11:45 PM 33.0690 -116.3830 220° Southwest 354 407 13,000 -2,727 Descending FlightAware ADS-B
Wed 05:12:20 PM 33.0200 -116.4300 219° Southwest 344 396 12,000 -1,024 Descending FlightAware ADS-B
Wed 05:13:07 PM 32.9580 -116.4760 212° Southwest 322 371 11,600 -774 Descending FlightAware ADS-B
Wed 05:13:53 PM 32.9170 -116.5370 231° Southwest 306 352 10,800 -1,059 Descending FlightAware ADS-B
Wed 05:14:32 PM 32.8850 -116.5890 234° Southwest 296 341 10,100 -806 Descending FlightAware ADS-B
Wed 05:15:00 PM 32.8620 -116.6260 234° Southwest 294 338 9,900 -927 Descending FlightAware ADS-B
Wed 05:16:22 PM 32.8040 -116.7200 234° Southwest 285 328 8,400 -1,220 Descending FlightAware ADS-B
Wed 05:17:03 PM 32.7660 -116.7820 234° Southwest 277 319 7,400 -1,182 Descending FlightAware ADS-B
Wed 05:17:28 PM 32.7490 -116.8100 234° Southwest 254 292 7,100 -900 Descending FlightAware ADS-B
Wed 05:17:43 PM 32.7390 -116.8270 235° Southwest 249 287 6,800 -1,500 Descending FlightAware ADS-B
Wed 05:18:08 PM 32.7210 -116.8560 234° Southwest 246 283 6,100 -1,527 Descending FlightAware ADS-B
Wed 05:18:38 PM 32.7020 -116.8860 233° Southwest 241 277 5,400 -1,277 Descending FlightAware ADS-B
Wed 05:18:55 PM 32.6910 -116.9050 235° Southwest 232 267 5,100 -1,021 Descending FlightAware ADS-B
Wed 05:19:25 PM 32.6750 -116.9360 238° Southwest 221 254 4,600 -1,158 Descending FlightAware ADS-B
Wed 05:19:52 PM 32.6790 -116.9680 278° West 210 242 4,000 -1,309 Descending FlightAware ADS-B
Wed 05:20:20 PM 32.6870 -116.9980 288° West 203 234 3,400 -1,350 Descending FlightAware ADS-B
Wed 05:20:32 PM 32.6900 -117.0110 285° West 200 230 3,100 -1,350 Descending FlightAware ADS-B
Wed 05:21:00 PM 32.6970 -117.0400 286° West 192 221 2,500 -1,231 Descending FlightAware ADS-B
Wed 05:21:11 PM 32.7000 -117.0500 290° West 191 220 2,300 -1,167 Descending FlightAware ADS-B
Wed 05:21:36 PM 32.7060 -117.0760 285° West 180 207 1,800 -1,019 Descending FlightAware ADS-B
Wed 05:22:04 PM 32.7120 -117.1000 287° West 162 186 1,400 -857 Descending FlightAware ADS-B
Wed 05:22:32 PM 32.7170 -117.1240 284° West 158 182 1,000 -857 Descending FlightAware ADS-B
Wed 05:23:00 PM 32.7230 -117.1460 288° West 151 174 600 -875 Descending FlightAware ADS-B
Wed 05:23:20 PM 32.7270 -117.1630 286° West 152 175 300 -882 Descending FlightAware ADS-B
Wed 05:23:34 PM 32.7300 -117.1730 290° West 151 174 100 -857 Descending FlightAware ADS-B
Wed 05:24:05 PM 32.7350 -117.1960 284° West 100 115 -194 Descending FlightAware ADS-B
Wed 05:24:33 PM 32.7360 -117.2020 281° West 16 18  Level FlightAware ADS-B
Wed 05:25:01 PM 32.7350 -117.2010 140° Southeast 9 10  Level FlightAware ADS-B
Wed 05:26:34 PM 32.7350 -117.2000 90° East 26 30  Level FlightAware ADS-B
Wed 05:26:47 PM 32.7340 -117.2000 180° South 29 33  Level FlightAware ADS-B
Wed 05:27:03 PM 32.7330 -117.2000 180° South 27 31  Level FlightAware ADS-B
Wed 05:27:39 PM 32.7330 -117.2010 270° West  Level FlightAware ADS-B

Login

Don't have an account? Register now (free) for customized features, flight alerts, and more!